Time;durP1;ratioP1;P1;durP2;ratioP2;P2;SDS_P1;SDS_P2;PMS_P1;PMS_P2;Temp;Humidity;BMP_temperature;BMP_pressure;BME280_temperature;BME280_humidity;BME280_pressure;Samples;Min_cycle;Max_cycle;Signal;HPM_P1;HPM_P2
2023/01/06 00:00:22;;;;;;;;;;;18.40;99.90;;;;;;5058880;28;19919;-68
2023/01/06 00:02:48;;;;;;;;;;;18.60;99.90;;;;;;5060064;28;19920;-69
2023/01/06 00:05:15;;;;;;;;;;;18.80;99.90;;;;;;5058793;28;19916;-68
2023/01/06 00:07:43;;;;;;;;;;;18.80;99.90;;;;;;5058745;28;19999;-68
2023/01/06 00:10:10;;;;;;;;;;;19.00;99.90;;;;;;5058911;28;19916;-69
2023/01/06 00:12:37;;;;;;;;;;;19.10;99.90;;;;;;5059009;28;19952;-71
2023/01/06 00:15:04;;;;;;;;;;;19.20;99.90;;;;;;5058949;28;19909;-68
2023/01/06 00:17:32;;;;;;;;;;;19.30;99.90;;;;;;5062917;28;20447;-68
2023/01/06 00:19:58;;;;;;;;;;;19.50;99.90;;;;;;5077436;28;19920;-68
2023/01/06 00:22:25;;;;;;;;;;;19.60;99.90;;;;;;5079052;28;20365;-69
2023/01/06 00:24:52;;;;;;;;;;;19.50;99.90;;;;;;5077982;28;19908;-71
2023/01/06 00:27:18;;;;;;;;;;;19.60;99.90;;;;;;5078455;28;19915;-68
2023/01/06 00:29:47;;;;;;;;;;;19.50;99.90;;;;;;5078984;28;19935;-67
2023/01/06 00:32:14;;;;;;;;;;;19.50;99.90;;;;;;5078902;28;19970;-67
2023/01/06 00:34:41;;;;;;;;;;;19.30;99.90;;;;;;5079297;28;20023;-68
2023/01/06 00:37:07;;;;;;;;;;;19.20;99.90;;;;;;5078600;28;19978;-66
2023/01/06 00:39:34;;;;;;;;;;;19.20;99.90;;;;;;5059432;28;19959;-69
2023/01/06 00:42:04;;;;;;;;;;;19.20;99.90;;;;;;5061405;28;19920;-67
2023/01/06 00:44:36;;;;;;;;;;;19.20;99.90;;;;;;5068316;28;20138;-72
2023/01/06 00:47:03;;;;;;;;;;;19.20;99.90;;;;;;5058618;28;20378;-70
2023/01/06 00:49:30;;;;;;;;;;;19.20;99.90;;;;;;5058192;28;19921;-67
2023/01/06 00:51:57;;;;;;;;;;;19.20;99.90;;;;;;5061263;28;20331;-72
2023/01/06 00:54:24;;;;;;;;;;;19.30;99.90;;;;;;5068929;28;20369;-68
2023/01/06 00:56:51;;;;;;;;;;;19.50;99.90;;;;;;5067278;28;19966;-75
2023/01/06 00:59:19;;;;;;;;;;;19.70;99.90;;;;;;5074566;28;19927;-67
2023/01/06 01:01:46;;;;;;;;;;;19.90;99.90;;;;;;5066619;28;19955;-67
2023/01/06 01:04:14;;;;;;;;;;;20.00;99.90;;;;;;5068179;28;19912;-68
2023/01/06 01:06:41;;;;;;;;;;;20.20;99.90;;;;;;5077121;28;20406;-67
2023/01/06 01:09:08;;;;;;;;;;;20.30;99.90;;;;;;5065948;28;20302;-67
2023/01/06 01:14:19;;;;;;;;;;;20.00;99.90;;;;;;5069960;28;20285;-69
2023/01/06 01:16:46;;;;;;;;;;;20.00;99.90;;;;;;5075004;28;19919;-69
2023/01/06 01:19:13;;;;;;;;;;;20.00;99.90;;;;;;5064275;28;19995;-70
2023/01/06 01:21:40;;;;;;;;;;;20.00;99.90;;;;;;5066567;28;20266;-71
2023/01/06 01:24:07;;;;;;;;;;;20.20;99.90;;;;;;5061701;28;20396;-67
2023/01/06 01:26:33;;;;;;;;;;;20.00;99.90;;;;;;5054692;28;20380;-68
2023/01/06 01:29:00;;;;;;;;;;;20.00;99.90;;;;;;5054562;28;19931;-68
2023/01/06 01:31:27;;;;;;;;;;;19.90;99.90;;;;;;5055349;28;20269;-72
2023/01/06 01:33:54;;;;;;;;;;;19.90;99.90;;;;;;5073495;28;19919;-68
2023/01/06 01:36:20;;;;;;;;;;;20.10;99.90;;;;;;5067973;28;20400;-69
2023/01/06 01:38:47;;;;;;;;;;;20.50;99.90;;;;;;5066752;28;19990;-69
2023/01/06 01:41:15;;;;;;;;;;;20.70;99.90;;;;;;5071686;28;20007;-69
2023/01/06 01:43:43;;;;;;;;;;;20.80;99.90;;;;;;5061869;28;19912;-68
2023/01/06 01:46:10;;;;;;;;;;;20.90;99.90;;;;;;5054452;28;19909;-68
2023/01/06 01:48:37;;;;;;;;;;;20.80;99.90;;;;;;5064335;28;19996;-71
2023/01/06 01:51:05;;;;;;;;;;;20.70;99.90;;;;;;5055544;28;19935;-68
2023/01/06 01:53:37;;;;;;;;;;;20.60;99.90;;;;;;5071225;28;19913;-67
2023/01/06 01:56:06;;;;;;;;;;;20.40;99.90;;;;;;5068732;28;19921;-68
2023/01/06 01:58:39;;;;;;;;;;;20.20;99.90;;;;;;5058293;28;19912;-67
2023/01/06 02:01:08;;;;;;;;;;;19.90;99.90;;;;;;5054547;28;19908;-68
2023/01/06 02:03:34;;;;;;;;;;;19.70;99.90;;;;;;5054517;28;20289;-67
2023/01/06 02:06:03;;;;;;;;;;;19.50;99.90;;;;;;5054259;28;19913;-68
2023/01/06 02:08:38;;;;;;;;;;;19.40;99.90;;;;;;5054550;28;19962;-67
2023/01/06 02:11:05;;;;;;;;;;;19.50;99.90;;;;;;5054350;28;19917;-70
2023/01/06 02:13:32;;;;;;;;;;;19.60;99.90;;;;;;5054396;28;19996;-68
2023/01/06 02:16:11;;;;;;;;;;;19.70;99.90;;;;;;5053998;28;20344;-70
2023/01/06 02:18:46;;;;;;;;;;;19.80;99.90;;;;;;5068816;28;20269;-68
2023/01/06 02:21:18;;;;;;;;;;;19.80;99.90;;;;;;5073872;28;19912;-68
2023/01/06 02:23:45;;;;;;;;;;;19.70;99.90;;;;;;5074092;28;19908;-67
2023/01/06 02:26:20;;;;;;;;;;;19.70;99.90;;;;;;5072104;28;20304;-67
2023/01/06 02:29:05;;;;;;;;;;;19.90;99.90;;;;;;5072731;28;19914;-68
2023/01/06 02:31:50;;;;;;;;;;;19.90;99.90;;;;;;5072985;28;19931;-70
2023/01/06 02:34:26;;;;;;;;;;;19.90;99.90;;;;;;5054344;28;20237;-71
2023/01/06 02:36:52;;;;;;;;;;;19.90;99.90;;;;;;5053583;28;19925;-68
2023/01/06 02:39:28;;;;;;;;;;;19.90;99.90;;;;;;5053909;28;20355;-68
2023/01/06 02:42:13;;;;;;;;;;;19.90;99.90;;;;;;5053942;28;19908;-68
2023/01/06 02:44:56;;;;;;;;;;;19.70;99.90;;;;;;5053908;28;20038;-70
2023/01/06 02:47:41;;;;;;;;;;;19.70;99.90;;;;;;5073604;28;19916;-68
2023/01/06 02:50:13;;;;;;;;;;;19.80;99.90;;;;;;5073584;28;19916;-68
2023/01/06 02:53:05;;;;;;;;;;;20.00;99.90;;;;;;5067338;28;19921;-68
2023/01/06 02:55:38;;;;;;;;;;;20.20;99.90;;;;;;5052100;28;19936;-68
2023/01/06 02:58:17;;;;;;;;;;;20.60;99.90;;;;;;5053438;28;19916;-68
2023/01/06 03:00:56;;;;;;;;;;;20.70;99.90;;;;;;5053557;28;19908;-69
2023/01/06 03:03:24;;;;;;;;;;;20.70;99.90;;;;;;5053471;28;19920;-67
2023/01/06 03:05:53;;;;;;;;;;;20.60;99.90;;;;;;5053081;28;19916;-68
2023/01/06 03:08:23;;;;;;;;;;;20.50;99.90;;;;;;5062753;28;20349;-70
2023/01/06 03:10:50;;;;;;;;;;;20.30;99.90;;;;;;5059384;28;20288;-70
2023/01/06 03:13:29;;;;;;;;;;;20.20;99.90;;;;;;5069786;28;19920;-72
2023/01/06 03:15:56;;;;;;;;;;;20.10;99.90;;;;;;5071382;28;20341;-71
2023/01/06 03:18:23;;;;;;;;;;;19.90;99.90;;;;;;5053296;28;19916;-70
2023/01/06 03:20:50;;;;;;;;;;;19.90;99.90;;;;;;5054177;28;20395;-71
2023/01/06 03:23:16;;;;;;;;;;;19.70;99.90;;;;;;5052778;28;19913;-68
2023/01/06 03:25:43;;;;;;;;;;;19.70;99.90;;;;;;5052812;28;19955;-72
2023/01/06 03:28:10;;;;;;;;;;;19.60;99.90;;;;;;5052857;28;19909;-68
2023/01/06 03:30:41;;;;;;;;;;;19.60;99.90;;;;;;5052178;28;20007;-69
2023/01/06 03:33:20;;;;;;;;;;;19.60;99.90;;;;;;5052813;28;19909;-71
2023/01/06 03:35:52;;;;;;;;;;;19.50;99.90;;;;;;5052339;28;20272;-69
2023/01/06 03:38:19;;;;;;;;;;;19.50;99.90;;;;;;5053587;28;19913;-68
2023/01/06 03:41:14;;;;;;;;;;;19.50;99.90;;;;;;5052604;28;19920;-69
2023/01/06 03:43:59;;;;;;;;;;;19.40;99.90;;;;;;5052399;28;20362;-67
2023/01/06 03:46:38;;;;;;;;;;;19.30;99.90;;;;;;5052705;28;19909;-73
2023/01/06 03:49:07;;;;;;;;;;;19.30;99.90;;;;;;5052794;28;20346;-69
2023/01/06 03:51:40;;;;;;;;;;;19.30;99.90;;;;;;5055596;28;19916;-69
2023/01/06 03:54:25;;;;;;;;;;;19.40;99.90;;;;;;5071459;28;20284;-70
2023/01/06 03:57:11;;;;;;;;;;;19.40;99.90;;;;;;5072654;28;19915;-71
2023/01/06 03:59:41;;;;;;;;;;;19.50;99.90;;;;;;5072349;28;20331;-70
2023/01/06 04:02:08;;;;;;;;;;;19.50;99.90;;;;;;5072530;28;19916;-68
2023/01/06 04:04:36;;;;;;;;;;;19.60;99.90;;;;;;5072308;28;19930;-69
2023/01/06 04:07:02;;;;;;;;;;;19.70;99.90;;;;;;5070338;28;19912;-68
2023/01/06 04:09:29;;;;;;;;;;;19.80;99.90;;;;;;5072956;28;19919;-68
2023/01/06 04:14:40;;;;;;;;;;;19.80;99.90;;;;;;5052974;28;20277;-68
2023/01/06 04:17:07;;;;;;;;;;;19.80;99.90;;;;;;5052770;28;19915;-69
2023/01/06 04:19:33;;;;;;;;;;;19.80;99.90;;;;;;5072828;28;19916;-67
2023/01/06 04:22:00;;;;;;;;;;;19.70;99.90;;;;;;5072233;28;19912;-66
2023/01/06 04:24:27;;;;;;;;;;;19.70;99.90;;;;;;5072632;28;19995;-68
2023/01/06 04:26:54;;;;;;;;;;;19.70;99.90;;;;;;5070771;28;19955;-68
2023/01/06 04:29:20;;;;;;;;;;;19.60;99.90;;;;;;5071643;28;19962;-68
2023/01/06 04:31:48;;;;;;;;;;;19.70;99.90;;;;;;5072492;28;20351;-67
2023/01/06 04:34:14;;;;;;;;;;;19.90;99.90;;;;;;5072119;28;20281;-68
2023/01/06 04:36:41;;;;;;;;;;;20.00;99.90;;;;;;5072042;28;20362;-68
2023/01/06 04:39:08;;;;;;;;;;;20.10;99.90;;;;;;5072360;28;19908;-70
2023/01/06 04:41:34;;;;;;;;;;;20.20;99.90;;;;;;5073285;28;19908;-68
2023/01/06 04:44:01;;;;;;;;;;;20.40;99.90;;;;;;5075926;28;19908;-69
2023/01/06 04:46:28;;;;;;;;;;;20.50;99.90;;;;;;5063760;28;19935;-69
2023/01/06 04:48:54;;;;;;;;;;;20.60;99.90;;;;;;5057797;28;19913;-67
2023/01/06 04:51:21;;;;;;;;;;;20.70;99.90;;;;;;5066407;28;19951;-67
2023/01/06 04:53:48;;;;;;;;;;;20.60;99.90;;;;;;5054263;28;19920;-68
2023/01/06 04:56:14;;;;;;;;;;;20.80;99.90;;;;;;5054472;28;20380;-69
2023/01/06 04:58:41;;;;;;;;;;;20.80;99.90;;;;;;5063160;28;20284;-68
2023/01/06 05:01:09;;;;;;;;;;;20.80;99.90;;;;;;5056473;28;19916;-68
2023/01/06 05:03:36;;;;;;;;;;;20.70;99.90;;;;;;5057373;28;19963;-70
2023/01/06 05:06:04;;;;;;;;;;;20.60;99.90;;;;;;5053319;28;19920;-70
2023/01/06 05:08:31;;;;;;;;;;;20.50;99.90;;;;;;5053272;28;19917;-69
2023/01/06 05:11:05;;;;;;;;;;;20.40;99.90;;;;;;5089700;28;20011;-70
2023/01/06 05:13:31;;;;;;;;;;;20.40;99.90;;;;;;5053901;28;19940;-68
2023/01/06 05:15:58;;;;;;;;;;;20.30;99.90;;;;;;5058691;28;19946;-69
2023/01/06 05:18:25;;;;;;;;;;;20.40;99.90;;;;;;5050491;28;19940;-69
2023/01/06 05:20:55;;;;;;;;;;;20.20;99.90;;;;;;5063295;28;20291;-67
2023/01/06 05:23:21;;;;;;;;;;;20.10;99.90;;;;;;5060615;28;19913;-72
2023/01/06 05:25:50;;;;;;;;;;;20.00;99.90;;;;;;5057073;28;19917;-70
2023/01/06 05:28:17;;;;;;;;;;;19.90;99.90;;;;;;5054083;28;19913;-75
2023/01/06 05:30:44;;;;;;;;;;;19.70;99.90;;;;;;5052683;28;19936;-75
2023/01/06 05:33:10;;;;;;;;;;;19.70;99.90;;;;;;5063809;28;19920;-75
2023/01/06 05:35:37;;;;;;;;;;;19.60;99.90;;;;;;5074772;28;20270;-69
2023/01/06 05:38:04;;;;;;;;;;;19.60;99.90;;;;;;5059436;28;19913;-68
2023/01/06 05:40:30;;;;;;;;;;;19.40;99.90;;;;;;5057080;28;19916;-68
2023/01/06 05:42:57;;;;;;;;;;;19.30;99.90;;;;;;5061723;28;19912;-67
2023/01/06 05:45:24;;;;;;;;;;;19.20;99.90;;;;;;5054599;28;19919;-68
2023/01/06 05:47:51;;;;;;;;;;;19.10;99.90;;;;;;5050130;28;19927;-68
2023/01/06 05:50:18;;;;;;;;;;;19.20;99.90;;;;;;5050185;28;19921;-69
2023/01/06 05:52:44;;;;;;;;;;;19.20;99.90;;;;;;5051016;28;19921;-68
2023/01/06 05:55:11;;;;;;;;;;;19.20;99.90;;;;;;5063246;28;19912;-68
2023/01/06 05:57:38;;;;;;;;;;;19.30;99.90;;;;;;5055518;28;19913;-68
2023/01/06 06:00:05;;;;;;;;;;;19.30;99.90;;;;;;5054923;28;19913;-70
2023/01/06 06:02:32;;;;;;;;;;;19.40;99.90;;;;;;5053810;28;19913;-69
2023/01/06 06:04:58;;;;;;;;;;;19.30;99.90;;;;;;5061227;28;19919;-68
2023/01/06 06:07:25;;;;;;;;;;;19.30;99.90;;;;;;5061480;28;19913;-71
2023/01/06 06:09:52;;;;;;;;;;;19.30;99.90;;;;;;5058321;28;19916;-67
2023/01/06 06:12:18;;;;;;;;;;;19.20;99.90;;;;;;5082956;28;19958;-71
2023/01/06 06:14:45;;;;;;;;;;;19.20;99.90;;;;;;5059452;28;19967;-68
2023/01/06 06:17:12;;;;;;;;;;;19.20;99.90;;;;;;5087633;28;20011;-67
2023/01/06 06:19:38;;;;;;;;;;;19.10;99.90;;;;;;5055165;28;20003;-68
2023/01/06 06:22:05;;;;;;;;;;;19.10;99.90;;;;;;5056460;28;19979;-68
2023/01/06 06:24:31;;;;;;;;;;;19.10;99.90;;;;;;5067648;28;19913;-69
2023/01/06 06:26:58;;;;;;;;;;;19.00;99.90;;;;;;5068123;28;19908;-68
2023/01/06 06:29:25;;;;;;;;;;;18.90;99.90;;;;;;5058210;28;20304;-68
2023/01/06 06:31:51;;;;;;;;;;;18.90;99.90;;;;;;5053738;28;19913;-67
2023/01/06 06:34:18;;;;;;;;;;;18.80;99.90;;;;;;5053734;28;19909;-67
2023/01/06 06:36:45;;;;;;;;;;;18.70;99.90;;;;;;5052057;28;19973;-69
2023/01/06 06:39:11;;;;;;;;;;;18.70;99.90;;;;;;5064367;28;20444;-68
2023/01/06 06:41:38;;;;;;;;;;;18.70;99.90;;;;;;5072343;28;19995;-68
2023/01/06 06:44:05;;;;;;;;;;;18.50;99.90;;;;;;5071689;28;19916;-67
2023/01/06 06:46:32;;;;;;;;;;;18.50;99.90;;;;;;5073175;28;20054;-66
2023/01/06 06:48:58;;;;;;;;;;;18.40;99.90;;;;;;5071886;28;19908;-67
2023/01/06 06:51:25;;;;;;;;;;;18.40;99.90;;;;;;5073092;28;19920;-67
2023/01/06 06:53:51;;;;;;;;;;;18.20;99.90;;;;;;5073351;28;19963;-66
2023/01/06 06:56:19;;;;;;;;;;;18.10;99.90;;;;;;5073119;28;19908;-68
2023/01/06 06:58:45;;;;;;;;;;;18.10;99.90;;;;;;5059550;28;19913;-67
2023/01/06 07:01:17;;;;;;;;;;;18.10;99.90;;;;;;5053691;28;19909;-67
2023/01/06 07:03:43;;;;;;;;;;;18.00;99.90;;;;;;5053300;28;19913;-69
2023/01/06 07:06:15;;;;;;;;;;;18.00;99.90;;;;;;5069909;28;19965;-68
2023/01/06 07:08:43;;;;;;;;;;;18.00;99.90;;;;;;5072832;28;19954;-68
2023/01/06 07:11:09;;;;;;;;;;;18.00;99.90;;;;;;5073067;28;19916;-67
2023/01/06 07:13:36;;;;;;;;;;;18.00;99.90;;;;;;5073242;28;19908;-69
2023/01/06 07:16:03;;;;;;;;;;;17.90;99.90;;;;;;5072760;28;19927;-68
2023/01/06 07:18:30;;;;;;;;;;;17.90;99.90;;;;;;5072762;28;19916;-68
2023/01/06 07:20:57;;;;;;;;;;;17.90;99.90;;;;;;5073226;28;19913;-67
2023/01/06 07:23:23;;;;;;;;;;;17.90;99.90;;;;;;5072898;28;20011;-68
2023/01/06 07:25:54;;;;;;;;;;;17.90;99.90;;;;;;5058749;28;19913;-67
2023/01/06 07:28:21;;;;;;;;;;;17.80;99.90;;;;;;5053903;28;19913;-68
2023/01/06 07:30:47;;;;;;;;;;;17.80;99.90;;;;;;5053080;28;19962;-67
2023/01/06 07:33:14;;;;;;;;;;;17.80;99.90;;;;;;5053100;28;19909;-70
2023/01/06 07:35:41;;;;;;;;;;;17.70;99.90;;;;;;5052673;28;19917;-67
2023/01/06 07:38:08;;;;;;;;;;;17.60;99.90;;;;;;5053164;28;19915;-68
2023/01/06 07:40:35;;;;;;;;;;;17.60;99.90;;;;;;5052681;28;19905;-68
2023/01/06 07:43:08;;;;;;;;;;;17.70;99.90;;;;;;5052949;28;19909;-68
2023/01/06 07:45:35;;;;;;;;;;;17.70;99.90;;;;;;5066812;28;19934;-68
2023/01/06 07:48:02;;;;;;;;;;;17.70;99.90;;;;;;5072737;28;19909;-68
2023/01/06 07:50:29;;;;;;;;;;;17.70;99.90;;;;;;5072463;28;19920;-68
2023/01/06 07:53:00;;;;;;;;;;;17.70;99.90;;;;;;5072838;28;19909;-65
2023/01/06 07:55:27;;;;;;;;;;;17.70;99.90;;;;;;5065671;28;19916;-68
2023/01/06 07:57:54;;;;;;;;;;;17.80;99.90;;;;;;5052480;28;19915;-70
2023/01/06 08:00:21;;;;;;;;;;;17.80;99.90;;;;;;5052654;28;19932;-67
2023/01/06 08:02:47;;;;;;;;;;;17.80;99.90;;;;;;5052440;28;20314;-66
2023/01/06 08:05:14;;;;;;;;;;;17.80;99.90;;;;;;5065551;28;19920;-68
2023/01/06 08:07:41;;;;;;;;;;;17.90;99.90;;;;;;5072247;28;19915;-67
2023/01/06 08:10:08;;;;;;;;;;;17.90;99.90;;;;;;5072620;28;20297;-69
2023/01/06 08:12:35;;;;;;;;;;;17.90;99.90;;;;;;5056768;28;19920;-69
2023/01/06 08:15:03;;;;;;;;;;;17.90;99.90;;;;;;5052339;28;19921;-68
2023/01/06 08:17:30;;;;;;;;;;;17.90;99.90;;;;;;5055189;28;20379;-68
2023/01/06 08:19:56;;;;;;;;;;;18.00;99.90;;;;;;5067021;28;20285;-69
2023/01/06 08:22:23;;;;;;;;;;;17.90;99.90;;;;;;5076525;28;19920;-68
2023/01/06 08:24:50;;;;;;;;;;;17.90;99.90;;;;;;5075144;28;19940;-68
2023/01/06 08:27:18;;;;;;;;;;;17.90;99.90;;;;;;5055948;28;19956;-68
2023/01/06 08:29:45;;;;;;;;;;;17.90;99.90;;;;;;5056314;28;19913;-68
2023/01/06 08:32:11;;;;;;;;;;;18.00;99.90;;;;;;5056982;28;19959;-69
2023/01/06 08:34:38;;;;;;;;;;;18.00;99.90;;;;;;5055759;28;19913;-69
2023/01/06 08:37:04;;;;;;;;;;;18.00;99.90;;;;;;5055857;28;20373;-68
2023/01/06 08:39:31;;;;;;;;;;;18.10;99.90;;;;;;5056503;28;20381;-69
2023/01/06 08:41:58;;;;;;;;;;;18.00;99.90;;;;;;5056287;28;19912;-68
2023/01/06 08:44:24;;;;;;;;;;;18.00;99.90;;;;;;5055952;28;19912;-68
2023/01/06 08:46:51;;;;;;;;;;;18.00;99.90;;;;;;5055560;28;19913;-68
2023/01/06 08:49:18;;;;;;;;;;;18.10;99.90;;;;;;5056063;28;19909;-68
2023/01/06 08:51:44;;;;;;;;;;;18.10;99.90;;;;;;5055957;28;19913;-68
2023/01/06 08:54:13;;;;;;;;;;;18.00;99.90;;;;;;5067135;28;20314;-68
2023/01/06 08:56:42;;;;;;;;;;;18.00;99.90;;;;;;5075861;28;19988;-68
2023/01/06 08:59:11;;;;;;;;;;;18.00;99.90;;;;;;5075920;28;19909;-68
2023/01/06 09:01:38;;;;;;;;;;;17.90;99.90;;;;;;5064812;28;19921;-69
2023/01/06 09:04:06;;;;;;;;;;;17.90;99.90;;;;;;5073936;28;19919;-68
2023/01/06 09:06:33;;;;;;;;;;;17.90;99.90;;;;;;5075581;28;20341;-73
2023/01/06 09:09:00;;;;;;;;;;;17.90;99.90;;;;;;5075741;28;19908;-70
2023/01/06 09:11:27;;;;;;;;;;;17.90;99.90;;;;;;5075587;28;20407;-67
2023/01/06 09:13:54;;;;;;;;;;;17.90;99.90;;;;;;5075514;28;19951;-66
2023/01/06 09:16:21;;;;;;;;;;;17.90;99.90;;;;;;5072263;28;19916;-68
2023/01/06 09:18:49;;;;;;;;;;;17.90;99.90;;;;;;5056492;28;19963;-71
2023/01/06 09:21:16;;;;;;;;;;;17.80;99.90;;;;;;5055305;28;19909;-67
2023/01/06 09:23:43;;;;;;;;;;;17.90;99.90;;;;;;5055548;28;20380;-70
2023/01/06 09:26:10;;;;;;;;;;;17.80;99.90;;;;;;5054913;28;19968;-69
2023/01/06 09:28:37;;;;;;;;;;;17.80;99.90;;;;;;5053840;28;19955;-72
2023/01/06 09:31:03;;;;;;;;;;;17.90;99.90;;;;;;5054884;28;20399;-69
2023/01/06 09:33:30;;;;;;;;;;;17.90;99.90;;;;;;5055158;28;19909;-71
2023/01/06 09:35:57;;;;;;;;;;;17.80;99.90;;;;;;5055785;28;20318;-67
2023/01/06 09:38:25;;;;;;;;;;;17.90;99.90;;;;;;5075100;28;19923;-68
2023/01/06 09:41:08;;;;;;;;;;;17.80;99.90;;;;;;5074846;28;19991;-73
2023/01/06 09:43:44;;;;;;;;;;;17.80;99.90;;;;;;5061907;28;19909;-67
2023/01/06 09:46:12;;;;;;;;;;;17.80;99.90;;;;;;5054729;28;19920;-68
2023/01/06 09:48:41;;;;;;;;;;;17.80;99.90;;;;;;5071984;28;20254;-68
2023/01/06 09:51:11;;;;;;;;;;;17.80;99.90;;;;;;5074600;28;19951;-67
2023/01/06 09:53:40;;;;;;;;;;;17.80;99.90;;;;;;5056795;28;19920;-68
2023/01/06 09:56:09;;;;;;;;;;;17.80;99.90;;;;;;5054323;28;19913;-73
2023/01/06 09:58:45;;;;;;;;;;;17.80;99.90;;;;;;5066985;28;19909;-68
2023/01/06 10:01:14;;;;;;;;;;;17.80;99.90;;;;;;5074825;28;19913;-70
2023/01/06 10:03:42;;;;;;;;;;;17.80;99.90;;;;;;5073956;28;19999;-69
2023/01/06 10:06:15;;;;;;;;;;;17.90;99.90;;;;;;5074334;28;19912;-67
2023/01/06 10:08:54;;;;;;;;;;;17.90;99.90;;;;;;5074380;28;19999;-69
2023/01/06 10:11:26;;;;;;;;;;;17.90;99.90;;;;;;5074653;28;19916;-68
2023/01/06 10:14:13;;;;;;;;;;;17.90;99.90;;;;;;5072883;28;19913;-68
2023/01/06 10:16:43;;;;;;;;;;;17.90;99.90;;;;;;5061933;28;20315;-68
2023/01/06 10:19:28;;;;;;;;;;;17.90;99.90;;;;;;5053077;28;19943;-69
2023/01/06 10:21:57;;;;;;;;;;;18.00;99.90;;;;;;5067728;28;19956;-70
2023/01/06 10:24:31;;;;;;;;;;;18.00;99.90;;;;;;5073422;28;19916;-68
2023/01/06 10:27:14;;;;;;;;;;;18.10;99.90;;;;;;5074192;28;20327;-67
2023/01/06 10:29:42;;;;;;;;;;;18.10;99.90;;;;;;5074049;28;19913;-67
2023/01/06 10:32:14;;;;;;;;;;;18.00;99.90;;;;;;5072760;28;19912;-70
2023/01/06 10:34:43;;;;;;;;;;;18.00;99.90;;;;;;5074103;28;20357;-69
2023/01/06 10:37:09;;;;;;;;;;;18.10;99.90;;;;;;5073409;28;19965;-67
2023/01/06 10:39:37;;;;;;;;;;;18.00;99.90;;;;;;5054443;28;19959;-68
2023/01/06 10:44:48;;;;;;;;;;;18.00;99.90;;;;;;5073862;28;20358;-68
2023/01/06 10:47:20;;;;;;;;;;;18.00;99.90;;;;;;5073230;28;19909;-67
2023/01/06 10:49:46;;;;;;;;;;;18.00;99.90;;;;;;5073674;28;19920;-68
2023/01/06 10:52:13;;;;;;;;;;;18.00;99.90;;;;;;5073624;28;19995;-68
2023/01/06 10:54:41;;;;;;;;;;;18.00;99.90;;;;;;5073682;28;19915;-68
2023/01/06 10:57:14;;;;;;;;;;;18.00;99.90;;;;;;5071477;28;19912;-68
2023/01/06 10:59:59;;;;;;;;;;;18.00;99.90;;;;;;5073164;28;19916;-71
2023/01/06 11:02:25;;;;;;;;;;;18.00;99.90;;;;;;5073600;28;19908;-68
2023/01/06 11:04:53;;;;;;;;;;;18.00;99.90;;;;;;5071794;28;19913;-70
2023/01/06 11:07:19;;;;;;;;;;;18.00;99.90;;;;;;5073445;28;19909;-68
2023/01/06 11:09:46;;;;;;;;;;;18.00;99.90;;;;;;5069961;28;20499;-68
2023/01/06 11:12:18;;;;;;;;;;;18.00;99.90;;;;;;5063850;28;20015;-68
2023/01/06 11:15:05;;;;;;;;;;;18.00;99.90;;;;;;5072940;28;19910;-68
2023/01/06 11:17:32;;;;;;;;;;;18.00;99.90;;;;;;5071387;28;19920;-68
2023/01/06 11:20:08;;;;;;;;;;;18.20;99.90;;;;;;5073094;28;19952;-68
2023/01/06 11:22:36;;;;;;;;;;;18.20;99.90;;;;;;5073010;28;20365;-71
2023/01/06 11:25:21;;;;;;;;;;;18.30;99.90;;;;;;5072984;28;19966;-72
2023/01/06 11:28:07;;;;;;;;;;;18.30;99.90;;;;;;5054072;28;19909;-72
2023/01/06 11:30:47;;;;;;;;;;;18.30;99.90;;;;;;5051024;28;20011;-71
2023/01/06 11:33:16;;;;;;;;;;;18.30;99.90;;;;;;5052916;28;19915;-69
2023/01/06 11:35:42;;;;;;;;;;;18.30;99.90;;;;;;5052319;28;19920;-70
2023/01/06 11:38:12;;;;;;;;;;;18.30;99.90;;;;;;5052844;28;19915;-70
2023/01/06 11:40:39;;;;;;;;;;;18.30;99.90;;;;;;5053390;28;20023;-68
2023/01/06 11:43:09;;;;;;;;;;;18.30;99.90;;;;;;5072801;28;19995;-69
2023/01/06 11:45:41;;;;;;;;;;;18.30;99.90;;;;;;5072507;28;19915;-69
2023/01/06 11:48:12;;;;;;;;;;;18.30;99.90;;;;;;5072859;28;19912;-71
2023/01/06 11:50:39;;;;;;;;;;;18.20;99.90;;;;;;5072424;28;19963;-72
2023/01/06 11:53:16;;;;;;;;;;;18.30;99.90;;;;;;5070730;28;19916;-72
2023/01/06 11:55:54;;;;;;;;;;;18.40;99.90;;;;;;5072656;28;19916;-72
2023/01/06 11:58:26;;;;;;;;;;;18.30;99.90;;;;;;5072774;28;19987;-70
2023/01/06 12:01:00;;;;;;;;;;;18.30;99.90;;;;;;5072585;28;19904;-70
2023/01/06 12:03:27;;;;;;;;;;;18.30;99.90;;;;;;5052327;28;19909;-71
2023/01/06 12:06:14;;;;;;;;;;;18.30;99.90;;;;;;5052514;28;19940;-68
2023/01/06 12:08:43;;;;;;;;;;;18.30;99.90;;;;;;5052215;28;19913;-72
2023/01/06 12:11:14;;;;;;;;;;;18.20;99.90;;;;;;5052547;28;19967;-68
2023/01/06 12:13:41;;;;;;;;;;;18.10;99.90;;;;;;5052736;28;19934;-68
2023/01/06 12:16:21;;;;;;;;;;;18.20;99.90;;;;;;5052187;28;20358;-68
2023/01/06 12:18:48;;;;;;;;;;;18.10;99.90;;;;;;5052454;28;20388;-67
2023/01/06 12:21:17;;;;;;;;;;;18.00;99.90;;;;;;5052160;28;19936;-74
2023/01/06 12:23:44;;;;;;;;;;;18.00;99.90;;;;;;5052642;28;20385;-69
2023/01/06 12:26:17;;;;;;;;;;;17.90;99.90;;;;;;5052007;28;19908;-68
2023/01/06 12:28:45;;;;;;;;;;;18.00;99.90;;;;;;5052413;28;20350;-69
2023/01/06 12:31:23;;;;;;;;;;;17.90;99.90;;;;;;5052538;28;20282;-68
2023/01/06 12:33:54;;;;;;;;;;;18.00;99.90;;;;;;5052409;28;19915;-68
2023/01/06 12:36:30;;;;;;;;;;;18.00;99.90;;;;;;5066764;28;19921;-69
2023/01/06 12:39:04;;;;;;;;;;;18.00;99.90;;;;;;5072545;28;19908;-69
2023/01/06 12:41:39;;;;;;;;;;;18.00;99.90;;;;;;5072305;28;20377;-67
2023/01/06 12:44:21;;;;;;;;;;;18.00;99.90;;;;;;5072001;28;19912;-69
2023/01/06 12:46:50;;;;;;;;;;;18.00;99.90;;;;;;5071913;28;19909;-68
2023/01/06 12:49:20;;;;;;;;;;;18.00;99.90;;;;;;5055545;28;19913;-67
2023/01/06 12:51:54;;;;;;;;;;;18.00;99.90;;;;;;5052352;28;19924;-68
2023/01/06 12:54:27;;;;;;;;;;;18.00;99.90;;;;;;5052299;28;19916;-67
2023/01/06 12:56:57;;;;;;;;;;;17.90;99.90;;;;;;5069616;28;19912;-68
2023/01/06 12:59:39;;;;;;;;;;;17.90;99.90;;;;;;5072091;28;20433;-68
2023/01/06 13:02:15;;;;;;;;;;;17.90;99.90;;;;;;5072179;28;19991;-67
2023/01/06 13:04:41;;;;;;;;;;;17.90;99.90;;;;;;5075597;28;19912;-68
2023/01/06 13:07:10;;;;;;;;;;;17.90;99.90;;;;;;5075525;28;20361;-67
2023/01/06 13:09:56;;;;;;;;;;;17.80;99.90;;;;;;5073661;28;19913;-68
2023/01/06 13:12:32;;;;;;;;;;;17.80;99.90;;;;;;5075749;28;19917;-68
2023/01/06 13:15:03;;;;;;;;;;;17.70;99.90;;;;;;5072255;28;20281;-67
2023/01/06 13:17:30;;;;;;;;;;;17.70;99.90;;;;;;5055403;28;19909;-67
2023/01/06 13:20:01;;;;;;;;;;;17.70;99.90;;;;;;5055602;28;19909;-68
2023/01/06 13:22:49;;;;;;;;;;;17.70;99.90;;;;;;5055369;28;19991;-68
2023/01/06 13:25:24;;;;;;;;;;;17.70;99.90;;;;;;5055321;28;19909;-68
2023/01/06 13:28:14;;;;;;;;;;;17.70;99.90;;;;;;5056669;28;19909;-68
2023/01/06 13:30:57;;;;;;;;;;;17.70;99.90;;;;;;5057687;28;20011;-69
2023/01/06 13:33:39;;;;;;;;;;;17.70;99.90;;;;;;5057898;28;19913;-68
2023/01/06 13:36:29;;;;;;;;;;;17.70;99.90;;;;;;5071324;28;19921;-68
2023/01/06 13:38:58;;;;;;;;;;;17.70;99.90;;;;;;5075192;28;19909;-68
2023/01/06 13:41:29;;;;;;;;;;;17.70;99.90;;;;;;5075398;28;19908;-66
2023/01/06 13:43:57;;;;;;;;;;;17.80;99.90;;;;;;5064048;28;20376;-68
2023/01/06 13:46:25;;;;;;;;;;;17.80;99.90;;;;;;5054692;28;19913;-68
2023/01/06 13:48:57;;;;;;;;;;;17.80;99.90;;;;;;5054903;28;19912;-67
2023/01/06 13:51:43;;;;;;;;;;;17.80;99.90;;;;;;5054868;28;19967;-68
2023/01/06 13:54:27;;;;;;;;;;;17.80;99.90;;;;;;5054605;28;19909;-67
2023/01/06 13:57:12;;;;;;;;;;;17.90;99.90;;;;;;5074203;28;20313;-67
2023/01/06 13:59:51;;;;;;;;;;;17.90;99.90;;;;;;5074637;28;19912;-68
2023/01/06 14:02:33;;;;;;;;;;;17.90;99.90;;;;;;5074051;28;19963;-67
2023/01/06 14:05:04;;;;;;;;;;;17.90;99.90;;;;;;5074465;28;19962;-68
2023/01/06 14:07:40;;;;;;;;;;;18.00;99.90;;;;;;5074628;28;20284;-68
2023/01/06 14:10:22;;;;;;;;;;;18.10;99.90;;;;;;5074596;28;20276;-69
2023/01/06 14:12:49;;;;;;;;;;;18.10;99.90;;;;;;5056137;28;19913;-69
2023/01/06 14:15:22;;;;;;;;;;;18.10;99.90;;;;;;5060051;28;19912;-67
2023/01/06 14:17:49;;;;;;;;;;;18.10;99.90;;;;;;5073884;28;20007;-68
2023/01/06 14:20:31;;;;;;;;;;;18.10;99.90;;;;;;5074373;28;19962;-68
2023/01/06 14:22:59;;;;;;;;;;;18.10;99.90;;;;;;5074409;28;19917;-67
2023/01/06 14:25:26;;;;;;;;;;;18.00;99.90;;;;;;5074197;28;19917;-67
2023/01/06 14:27:53;;;;;;;;;;;18.10;99.90;;;;;;5073344;28;19920;-68
2023/01/06 14:30:30;;;;;;;;;;;18.00;99.90;;;;;;5074053;28;20339;-67
2023/01/06 14:32:59;;;;;;;;;;;18.00;99.90;;;;;;5074138;28;19915;-67
2023/01/06 14:35:28;;;;;;;;;;;18.00;99.90;;;;;;5062940;28;19969;-66
2023/01/06 14:37:58;;;;;;;;;;;18.00;99.90;;;;;;5053739;28;20371;-67
2023/01/06 14:40:26;;;;;;;;;;;18.00;99.90;;;;;;5067870;28;20000;-67